sensor_id;sensor_type;location;lat;lon;timestamp;pressure;altitude;pressure_sealevel;temperature;humidity
80198;BME280;69517;52.030;7.106;2023-06-14T00:00:59;100657.41;;;23.86;73.06
80198;BME280;69517;52.030;7.106;2023-06-14T00:03:27;100662.56;;;23.88;72.83
80198;BME280;69517;52.030;7.106;2023-06-14T00:05:54;100662.44;;;23.90;72.88
80198;BME280;69517;52.030;7.106;2023-06-14T00:08:20;100663.41;;;23.89;72.64
80198;BME280;69517;52.030;7.106;2023-06-14T00:10:47;100657.16;;;23.90;72.94
80198;BME280;69517;52.030;7.106;2023-06-14T00:13:15;100665.09;;;23.90;72.49
80198;BME280;69517;52.030;7.106;2023-06-14T00:15:41;100658.97;;;23.89;72.51
80198;BME280;69517;52.030;7.106;2023-06-14T00:18:08;100657.28;;;23.88;72.80
80198;BME280;69517;52.030;7.106;2023-06-14T00:20:36;100660.88;;;23.87;72.97
80198;BME280;69517;52.030;7.106;2023-06-14T00:23:02;100667.84;;;23.88;72.89
80198;BME280;69517;52.030;7.106;2023-06-14T00:25:29;100663.41;;;23.89;72.62
80198;BME280;69517;52.030;7.106;2023-06-14T00:27:55;100666.16;;;23.87;72.78
80198;BME280;69517;52.030;7.106;2023-06-14T00:30:23;100672.28;;;23.88;72.88
80198;BME280;69517;52.030;7.106;2023-06-14T00:32:49;100678.41;;;23.88;72.83
80198;BME280;69517;52.030;7.106;2023-06-14T00:35:16;100672.03;;;23.91;72.84
80198;BME280;69517;52.030;7.106;2023-06-14T00:37:42;100668.78;;;23.87;72.81
80198;BME280;69517;52.030;7.106;2023-06-14T00:40:09;100671.31;;;23.89;72.63
80198;BME280;69517;52.030;7.106;2023-06-14T00:42:35;100674.91;;;23.88;72.80
80198;BME280;69517;52.030;7.106;2023-06-14T00:45:01;100673.22;;;23.86;72.98
80198;BME280;69517;52.030;7.106;2023-06-14T00:47:29;100679.34;;;23.87;72.74
80198;BME280;69517;52.030;7.106;2023-06-14T00:49:55;100677.56;;;23.88;72.91
80198;BME280;69517;52.030;7.106;2023-06-14T00:52:22;100680.19;;;23.88;73.05
80198;BME280;69517;52.030;7.106;2023-06-14T00:54:50;100678.41;;;23.88;72.79
80198;BME280;69517;52.030;7.106;2023-06-14T00:57:16;100684.75;;;23.85;73.03
80198;BME280;69517;52.030;7.106;2023-06-14T00:59:43;100679.63;;;23.84;72.78
80198;BME280;69517;52.030;7.106;2023-06-14T01:02:10;100679.47;;;23.85;72.96
80198;BME280;69517;52.030;7.106;2023-06-14T01:04:37;100686.44;;;23.86;72.95
80198;BME280;69517;52.030;7.106;2023-06-14T01:07:07;100683.78;;;23.86;73.01
80198;BME280;69517;52.030;7.106;2023-06-14T01:09:41;100691.72;;;23.86;72.96
80198;BME280;69517;52.030;7.106;2023-06-14T01:12:13;100697.84;;;23.87;73.07
80198;BME280;69517;52.030;7.106;2023-06-14T01:14:41;100700.47;;;23.87;72.77
80198;BME280;69517;52.030;7.106;2023-06-14T01:17:08;100700.75;;;23.84;73.13
80198;BME280;69517;52.030;7.106;2023-06-14T01:19:42;100696.16;;;23.86;72.91
80198;BME280;69517;52.030;7.106;2023-06-14T01:22:09;100699.91;;;23.83;73.20
80198;BME280;69517;52.030;7.106;2023-06-14T01:24:37;100703.22;;;23.85;72.90
80198;BME280;69517;52.030;7.106;2023-06-14T01:27:04;100695.56;;;23.82;73.15
80198;BME280;69517;52.030;7.106;2023-06-14T01:29:32;100702.38;;;23.85;72.78
80198;BME280;69517;52.030;7.106;2023-06-14T01:32:01;100693.78;;;23.83;73.04
80198;BME280;69517;52.030;7.106;2023-06-14T01:34:27;100694.47;;;23.85;72.85
80198;BME280;69517;52.030;7.106;2023-06-14T01:36:54;100692.69;;;23.85;72.91
80198;BME280;69517;52.030;7.106;2023-06-14T01:39:20;100694.47;;;23.85;72.91
80198;BME280;69517;52.030;7.106;2023-06-14T01:41:49;100695.31;;;23.85;72.70
80198;BME280;69517;52.030;7.106;2023-06-14T01:44:16;100703.50;;;23.82;72.86
80198;BME280;69517;52.030;7.106;2023-06-14T01:46:42;100701.59;;;23.84;73.00
80198;BME280;69517;52.030;7.106;2023-06-14T01:49:10;100700.84;;;23.82;72.89
80198;BME280;69517;52.030;7.106;2023-06-14T01:51:36;100696.31;;;23.84;73.04
80198;BME280;69517;52.030;7.106;2023-06-14T01:54:03;100695.47;;;23.84;73.05
80198;BME280;69517;52.030;7.106;2023-06-14T01:56:29;100703.38;;;23.84;73.02
80198;BME280;69517;52.030;7.106;2023-06-14T01:58:57;100697.50;;;23.80;73.14
80198;BME280;69517;52.030;7.106;2023-06-14T02:01:23;100699.16;;;23.81;73.13
80198;BME280;69517;52.030;7.106;2023-06-14T02:03:49;100694.72;;;23.82;72.92
80198;BME280;69517;52.030;7.106;2023-06-14T02:06:16;100694.63;;;23.83;72.64
80198;BME280;69517;52.030;7.106;2023-06-14T02:08:42;100692.94;;;23.82;73.22
80198;BME280;69517;52.030;7.106;2023-06-14T02:11:09;100693.16;;;23.79;73.08
80198;BME280;69517;52.030;7.106;2023-06-14T02:13:35;100694.72;;;23.82;73.07
80198;BME280;69517;52.030;7.106;2023-06-14T02:16:03;100686.94;;;23.80;73.12
80198;BME280;69517;52.030;7.106;2023-06-14T02:18:30;100692.09;;;23.82;72.65
80198;BME280;69517;52.030;7.106;2023-06-14T02:20:57;100694.84;;;23.80;73.09
80198;BME280;69517;52.030;7.106;2023-06-14T02:23:23;100692.94;;;23.82;72.97
80198;BME280;69517;52.030;7.106;2023-06-14T02:25:49;100696.41;;;23.83;73.03
80198;BME280;69517;52.030;7.106;2023-06-14T02:28:15;100702.75;;;23.80;73.01
80198;BME280;69517;52.030;7.106;2023-06-14T02:30:42;100701.69;;;23.83;73.03
80198;BME280;69517;52.030;7.106;2023-06-14T02:33:09;100698.09;;;23.84;72.93
80198;BME280;69517;52.030;7.106;2023-06-14T02:35:37;100696.53;;;23.81;73.06
80198;BME280;69517;52.030;7.106;2023-06-14T02:38:03;100708.78;;;23.82;73.15
80198;BME280;69517;52.030;7.106;2023-06-14T02:40:30;100714.06;;;23.82;72.98
80198;BME280;69517;52.030;7.106;2023-06-14T02:42:56;100711.53;;;23.81;72.87
80198;BME280;69517;52.030;7.106;2023-06-14T02:45:22;100711.41;;;23.82;72.91
80198;BME280;69517;52.030;7.106;2023-06-14T02:47:48;100708.03;;;23.80;72.82
80198;BME280;69517;52.030;7.106;2023-06-14T02:50:16;100707.81;;;23.83;72.76
80198;BME280;69517;52.030;7.106;2023-06-14T02:52:42;100712.38;;;23.81;72.84
80198;BME280;69517;52.030;7.106;2023-06-14T02:55:10;100705.28;;;23.82;72.81
80198;BME280;69517;52.030;7.106;2023-06-14T02:57:36;100708.03;;;23.80;73.09
80198;BME280;69517;52.030;7.106;2023-06-14T03:00:03;100721.03;;;23.83;72.98
80198;BME280;69517;52.030;7.106;2023-06-14T03:02:29;100722.34;;;23.78;73.15
80198;BME280;69517;52.030;7.106;2023-06-14T03:04:55;100722.94;;;23.81;73.15
80198;BME280;69517;52.030;7.106;2023-06-14T03:07:27;100728.31;;;23.80;72.89
80198;BME280;69517;52.030;7.106;2023-06-14T03:09:54;100727.25;;;23.82;72.89
80198;BME280;69517;52.030;7.106;2023-06-14T03:12:21;100729.06;;;23.82;72.93
80198;BME280;69517;52.030;7.106;2023-06-14T03:14:48;100731.81;;;23.80;72.91
80198;BME280;69517;52.030;7.106;2023-06-14T03:17:15;100733.38;;;23.83;72.99
80198;BME280;69517;52.030;7.106;2023-06-14T03:19:42;100736.13;;;23.81;72.93
80198;BME280;69517;52.030;7.106;2023-06-14T03:22:08;100737.19;;;23.79;73.19
80198;BME280;69517;52.030;7.106;2023-06-14T03:24:38;100739.72;;;23.80;73.09
80198;BME280;69517;52.030;7.106;2023-06-14T03:27:05;100736.50;;;23.77;73.21
80198;BME280;69517;52.030;7.106;2023-06-14T03:29:31;100742.38;;;23.80;73.09
80198;BME280;69517;52.030;7.106;2023-06-14T03:31:58;100744.16;;;23.80;73.04
80198;BME280;69517;52.030;7.106;2023-06-14T03:34:24;100749.34;;;23.81;73.12
80198;BME280;69517;52.030;7.106;2023-06-14T03:36:51;100742.75;;;23.76;73.34
80198;BME280;69517;52.030;7.106;2023-06-14T03:39:17;100752.94;;;23.80;73.28
80198;BME280;69517;52.030;7.106;2023-06-14T03:41:45;100756.66;;;23.78;73.15
80198;BME280;69517;52.030;7.106;2023-06-14T03:44:13;100759.16;;;23.79;73.13
80198;BME280;69517;52.030;7.106;2023-06-14T03:46:40;100764.44;;;23.79;72.80
80198;BME280;69517;52.030;7.106;2023-06-14T03:49:06;100769.72;;;23.79;72.92
80198;BME280;69517;52.030;7.106;2023-06-14T03:51:32;100771.41;;;23.80;72.78
80198;BME280;69517;52.030;7.106;2023-06-14T03:53:59;100781.38;;;23.77;73.14
80198;BME280;69517;52.030;7.106;2023-06-14T03:56:26;100775.38;;;23.75;72.84
80198;BME280;69517;52.030;7.106;2023-06-14T03:58:54;100783.19;;;23.76;72.93
80198;BME280;69517;52.030;7.106;2023-06-14T04:01:21;100778.84;;;23.75;73.22
80198;BME280;69517;52.030;7.106;2023-06-14T04:03:50;100784.38;;;23.72;73.15
80198;BME280;69517;52.030;7.106;2023-06-14T04:06:16;100783.19;;;23.76;73.14
80198;BME280;69517;52.030;7.106;2023-06-14T04:08:44;100791.00;;;23.78;73.21
80198;BME280;69517;52.030;7.106;2023-06-14T04:11:11;100784.13;;;23.75;73.26
80198;BME280;69517;52.030;7.106;2023-06-14T04:13:37;100786.88;;;23.74;73.15
80198;BME280;69517;52.030;7.106;2023-06-14T04:16:05;100790.25;;;23.76;73.21
80198;BME280;69517;52.030;7.106;2023-06-14T04:18:32;100792.31;;;23.72;72.90
80198;BME280;69517;52.030;7.106;2023-06-14T04:20:58;100798.53;;;23.71;73.14
80198;BME280;69517;52.030;7.106;2023-06-14T04:23:25;100803.69;;;23.73;73.10
80198;BME280;69517;52.030;7.106;2023-06-14T04:25:53;100800.94;;;23.74;73.12
80198;BME280;69517;52.030;7.106;2023-06-14T04:28:19;100802.63;;;23.75;72.95
80198;BME280;69517;52.030;7.106;2023-06-14T04:30:50;100807.91;;;23.75;73.09
80198;BME280;69517;52.030;7.106;2023-06-14T04:33:19;100808.84;;;23.74;73.05
80198;BME280;69517;52.030;7.106;2023-06-14T04:35:46;100814.84;;;23.76;72.75
80198;BME280;69517;52.030;7.106;2023-06-14T04:38:13;100811.59;;;23.73;73.03
80198;BME280;69517;52.030;7.106;2023-06-14T04:40:41;100821.09;;;23.75;73.02
80198;BME280;69517;52.030;7.106;2023-06-14T04:43:09;100825.41;;;23.76;72.94
80198;BME280;69517;52.030;7.106;2023-06-14T04:45:37;100821.09;;;23.75;72.88
80198;BME280;69517;52.030;7.106;2023-06-14T04:48:05;100825.53;;;23.75;72.76
80198;BME280;69517;52.030;7.106;2023-06-14T04:50:33;100826.63;;;23.72;73.05
80198;BME280;69517;52.030;7.106;2023-06-14T04:53:00;100831.19;;;23.70;72.92
80198;BME280;69517;52.030;7.106;2023-06-14T04:55:26;100831.06;;;23.72;72.94
80198;BME280;69517;52.030;7.106;2023-06-14T04:57:52;100829.97;;;23.74;72.97
80198;BME280;69517;52.030;7.106;2023-06-14T05:00:19;100831.91;;;23.72;73.13
80198;BME280;69517;52.030;7.106;2023-06-14T05:02:45;100831.91;;;23.72;72.64
80198;BME280;69517;52.030;7.106;2023-06-14T05:05:14;100833.78;;;23.48;68.27
80198;BME280;69517;52.030;7.106;2023-06-14T05:07:42;100837.66;;;22.96;64.21
80198;BME280;69517;52.030;7.106;2023-06-14T05:10:08;100837.34;;;22.77;61.92
80198;BME280;69517;52.030;7.106;2023-06-14T05:12:34;100847.44;;;22.71;60.66
80198;BME280;69517;52.030;7.106;2023-06-14T05:15:01;100847.78;;;22.66;59.69
80198;BME280;69517;52.030;7.106;2023-06-14T05:17:28;100848.38;;;22.46;58.29
80198;BME280;69517;52.030;7.106;2023-06-14T05:19:54;100855.34;;;22.47;58.63
80198;BME280;69517;52.030;7.106;2023-06-14T05:22:20;100854.91;;;22.53;57.53
80198;BME280;69517;52.030;7.106;2023-06-14T05:24:48;100854.00;;;22.29;57.47
80198;BME280;69517;52.030;7.106;2023-06-14T05:27:14;100860.84;;;22.44;57.75
80198;BME280;69517;52.030;7.106;2023-06-14T05:29:40;100852.81;;;22.69;58.02
80198;BME280;69517;52.030;7.106;2023-06-14T05:32:07;100856.41;;;22.81;58.20
80198;BME280;69517;52.030;7.106;2023-06-14T05:34:33;100848.56;;;22.92;58.80
80198;BME280;69517;52.030;7.106;2023-06-14T05:37:00;100845.94;;;22.92;59.11
80198;BME280;69517;52.030;7.106;2023-06-14T05:39:26;100847.72;;;22.91;59.06
80198;BME280;69517;52.030;7.106;2023-06-14T05:41:53;100847.38;;;22.96;59.14
80198;BME280;69517;52.030;7.106;2023-06-14T05:44:20;100852.63;;;22.96;59.77
80198;BME280;69517;52.030;7.106;2023-06-14T05:46:46;100854.09;;;23.00;59.61
80198;BME280;69517;52.030;7.106;2023-06-14T05:49:12;100853.25;;;22.99;60.13
80198;BME280;69517;52.030;7.106;2023-06-14T05:51:39;100856.63;;;23.01;59.75
80198;BME280;69517;52.030;7.106;2023-06-14T05:54:05;100858.50;;;22.99;59.53
80198;BME280;69517;52.030;7.106;2023-06-14T05:56:31;100872.34;;;23.03;59.86
80198;BME280;69517;52.030;7.106;2023-06-14T05:58:59;100867.00;;;22.92;58.97
80198;BME280;69517;52.030;7.106;2023-06-14T06:01:25;100865.94;;;22.94;59.57
80198;BME280;69517;52.030;7.106;2023-06-14T06:03:51;100867.41;;;22.98;58.69
80198;BME280;69517;52.030;7.106;2023-06-14T06:06:18;100871.00;;;22.97;58.93
80198;BME280;69517;52.030;7.106;2023-06-14T06:08:44;100877.59;;;23.03;58.70
80198;BME280;69517;52.030;7.106;2023-06-14T06:11:11;100882.59;;;22.95;58.54
80198;BME280;69517;52.030;7.106;2023-06-14T06:13:37;100880.47;;;23.00;58.04
80198;BME280;69517;52.030;7.106;2023-06-14T06:16:06;100882.50;;;22.96;57.21
80198;BME280;69517;52.030;7.106;2023-06-14T06:18:33;100880.31;;;22.90;57.17
80198;BME280;69517;52.030;7.106;2023-06-14T06:20:59;100873.59;;;22.86;56.93
80198;BME280;69517;52.030;7.106;2023-06-14T06:23:25;100873.78;;;22.83;56.46
80198;BME280;69517;52.030;7.106;2023-06-14T06:25:52;100879.50;;;22.77;56.39
80198;BME280;69517;52.030;7.106;2023-06-14T06:28:18;100884.34;;;22.71;56.33
80198;BME280;69517;52.030;7.106;2023-06-14T06:30:45;100874.16;;;22.66;56.50
80198;BME280;69517;52.030;7.106;2023-06-14T06:33:12;100878.47;;;22.67;56.66
80198;BME280;69517;52.030;7.106;2023-06-14T06:35:39;100886.28;;;22.69;56.71
80198;BME280;69517;52.030;7.106;2023-06-14T06:38:06;100876.38;;;22.72;56.14
80198;BME280;69517;52.030;7.106;2023-06-14T06:40:33;100891.66;;;22.67;56.71
80198;BME280;69517;52.030;7.106;2023-06-14T06:42:59;100894.72;;;22.74;56.47
80198;BME280;69517;52.030;7.106;2023-06-14T06:45:26;100899.78;;;22.51;56.06
80198;BME280;69517;52.030;7.106;2023-06-14T06:47:52;100898.94;;;22.51;55.82
80198;BME280;69517;52.030;7.106;2023-06-14T06:50:20;100903.78;;;22.57;55.98
80198;BME280;69517;52.030;7.106;2023-06-14T06:52:48;100910.13;;;22.54;56.19
80198;BME280;69517;52.030;7.106;2023-06-14T06:55:14;100903.16;;;22.53;56.02
80198;BME280;69517;52.030;7.106;2023-06-14T06:57:40;100903.34;;;22.63;55.53
80198;BME280;69517;52.030;7.106;2023-06-14T07:00:07;100901.13;;;22.57;55.17
80198;BME280;69517;52.030;7.106;2023-06-14T07:02:34;100906.50;;;22.68;56.11
80198;BME280;69517;52.030;7.106;2023-06-14T07:05:01;100905.47;;;22.58;55.58
80198;BME280;69517;52.030;7.106;2023-06-14T07:07:28;100917.28;;;22.52;55.50
80198;BME280;69517;52.030;7.106;2023-06-14T07:09:54;100918.81;;;22.44;54.82
80198;BME280;69517;52.030;7.106;2023-06-14T07:12:22;100927.22;;;22.49;55.29
80198;BME280;69517;52.030;7.106;2023-06-14T07:14:48;100935.72;;;22.65;53.72
80198;BME280;69517;52.030;7.106;2023-06-14T07:17:15;100934.16;;;22.62;53.99
80198;BME280;69517;52.030;7.106;2023-06-14T07:19:41;100930.03;;;22.58;54.12
80198;BME280;69517;52.030;7.106;2023-06-14T07:22:07;100935.38;;;22.82;54.38
80198;BME280;69517;52.030;7.106;2023-06-14T07:24:35;100932.69;;;22.95;54.64
80198;BME280;69517;52.030;7.106;2023-06-14T07:27:01;100921.16;;;23.09;54.92
80198;BME280;69517;52.030;7.106;2023-06-14T07:29:29;100925.97;;;23.15;54.76
80198;BME280;69517;52.030;7.106;2023-06-14T07:31:55;100931.00;;;23.18;55.60
80198;BME280;69517;52.030;7.106;2023-06-14T07:34:21;100929.94;;;23.20;55.82
80198;BME280;69517;52.030;7.106;2023-06-14T07:36:47;100931.53;;;23.23;56.52
80198;BME280;69517;52.030;7.106;2023-06-14T07:39:14;100927.81;;;23.25;56.28
80198;BME280;69517;52.030;7.106;2023-06-14T07:41:41;100916.31;;;23.26;56.26
80198;BME280;69517;52.030;7.106;2023-06-14T07:44:07;100933.09;;;23.25;56.47
80198;BME280;69517;52.030;7.106;2023-06-14T07:46:34;100926.97;;;23.25;56.61
80198;BME280;69517;52.030;7.106;2023-06-14T07:49:00;100923.63;;;23.23;56.30
80198;BME280;69517;52.030;7.106;2023-06-14T07:51:26;100921.69;;;23.25;57.33
80198;BME280;69517;52.030;7.106;2023-06-14T07:53:53;100930.94;;;23.30;57.23
80198;BME280;69517;52.030;7.106;2023-06-14T07:56:19;100931.28;;;23.26;57.82
80198;BME280;69517;52.030;7.106;2023-06-14T07:58:46;100932.13;;;23.26;57.79
80198;BME280;69517;52.030;7.106;2023-06-14T08:01:13;100925.66;;;23.30;58.27
80198;BME280;69517;52.030;7.106;2023-06-14T08:03:40;100917.66;;;23.32;59.15
80198;BME280;69517;52.030;7.106;2023-06-14T08:06:06;100927.25;;;23.33;58.55
80198;BME280;69517;52.030;7.106;2023-06-14T08:08:33;100919.34;;;23.33;58.67
80198;BME280;69517;52.030;7.106;2023-06-14T08:10:59;100921.03;;;23.34;58.89
80198;BME280;69517;52.030;7.106;2023-06-14T08:13:25;100920.38;;;23.30;58.78
80198;BME280;69517;52.030;7.106;2023-06-14T08:15:53;100920.28;;;23.32;58.81
80198;BME280;69517;52.030;7.106;2023-06-14T08:18:20;100921.13;;;23.32;59.00
80198;BME280;69517;52.030;7.106;2023-06-14T08:20:46;100919.22;;;23.34;59.53
80198;BME280;69517;52.030;7.106;2023-06-14T08:23:12;100915.50;;;23.37;60.11
80198;BME280;69517;52.030;7.106;2023-06-14T08:25:39;100923.66;;;23.34;59.68
80198;BME280;69517;52.030;7.106;2023-06-14T08:28:05;100916.59;;;23.34;59.18
80198;BME280;69517;52.030;7.106;2023-06-14T08:30:31;100920.66;;;23.38;60.04
80198;BME280;69517;52.030;7.106;2023-06-14T08:32:59;100915.50;;;23.37;59.99
80198;BME280;69517;52.030;7.106;2023-06-14T08:35:25;100915.75;;;23.34;59.11
80198;BME280;69517;52.030;7.106;2023-06-14T08:37:51;100912.03;;;23.36;59.61
80198;BME280;69517;52.030;7.106;2023-06-14T08:40:18;100910.97;;;23.39;60.27
80198;BME280;69517;52.030;7.106;2023-06-14T08:42:47;100919.13;;;23.36;59.47
80198;BME280;69517;52.030;7.106;2023-06-14T08:45:13;100920.78;;;23.37;59.67
80198;BME280;69517;52.030;7.106;2023-06-14T08:47:40;100928.38;;;23.41;60.09
80198;BME280;69517;52.030;7.106;2023-06-14T08:50:08;100919.94;;;23.36;60.06
80198;BME280;69517;52.030;7.106;2023-06-14T08:52:36;100918.78;;;23.40;60.28
80198;BME280;69517;52.030;7.106;2023-06-14T08:55:05;100928.81;;;23.35;59.92
80198;BME280;69517;52.030;7.106;2023-06-14T08:57:31;100920.78;;;23.37;61.12
80198;BME280;69517;52.030;7.106;2023-06-14T09:00:02;100917.81;;;23.41;61.09
80198;BME280;69517;52.030;7.106;2023-06-14T09:02:35;100918.88;;;23.39;60.42
80198;BME280;69517;52.030;7.106;2023-06-14T09:05:01;100909.72;;;23.32;59.34
80198;BME280;69517;52.030;7.106;2023-06-14T09:07:29;100919.34;;;23.33;59.68
80198;BME280;69517;52.030;7.106;2023-06-14T09:10:04;100916.47;;;23.36;59.85
80198;BME280;69517;52.030;7.106;2023-06-14T09:12:31;100917.66;;;23.32;59.81
80198;BME280;69517;52.030;7.106;2023-06-14T09:14:57;100915.50;;;23.37;60.15
80198;BME280;69517;52.030;7.106;2023-06-14T09:17:23;100918.88;;;23.39;59.51
80198;BME280;69517;52.030;7.106;2023-06-14T09:19:50;100925.84;;;23.40;60.27
80198;BME280;69517;52.030;7.106;2023-06-14T09:22:16;100925.84;;;23.40;60.46
80198;BME280;69517;52.030;7.106;2023-06-14T09:24:44;100930.88;;;23.43;60.65
80198;BME280;69517;52.030;7.106;2023-06-14T09:27:14;100934.25;;;23.45;61.03
80198;BME280;69517;52.030;7.106;2023-06-14T09:29:40;100932.56;;;23.44;60.44
80198;BME280;69517;52.030;7.106;2023-06-14T09:32:07;100939.53;;;23.45;60.95
80198;BME280;69517;52.030;7.106;2023-06-14T09:34:34;100941.13;;;23.48;61.20
80198;BME280;69517;52.030;7.106;2023-06-14T09:37:01;100955.19;;;23.48;61.34
80198;BME280;69517;52.030;7.106;2023-06-14T09:39:27;100946.50;;;23.46;60.96
80198;BME280;69517;52.030;7.106;2023-06-14T09:41:55;100944.81;;;23.45;60.83
80198;BME280;69517;52.030;7.106;2023-06-14T09:44:21;100953.56;;;23.45;61.49
80198;BME280;69517;52.030;7.106;2023-06-14T09:46:50;100947.25;;;23.48;61.76
80198;BME280;69517;52.030;7.106;2023-06-14T09:49:16;100943.78;;;23.48;61.59
80198;BME280;69517;52.030;7.106;2023-06-14T09:51:43;100952.66;;;23.47;61.42
80198;BME280;69517;52.030;7.106;2023-06-14T09:54:16;100952.66;;;23.47;61.53
80198;BME280;69517;52.030;7.106;2023-06-14T09:56:44;100943.97;;;23.44;61.42
80198;BME280;69517;52.030;7.106;2023-06-14T09:59:12;100940.72;;;23.41;60.68
80198;BME280;69517;52.030;7.106;2023-06-14T10:01:40;100948.22;;;23.47;61.20
80198;BME280;69517;52.030;7.106;2023-06-14T10:04:07;100951.78;;;23.46;61.38
80198;BME280;69517;52.030;7.106;2023-06-14T10:06:36;100953.34;;;23.49;60.98
80198;BME280;69517;52.030;7.106;2023-06-14T10:09:03;100966.53;;;23.49;61.23
80198;BME280;69517;52.030;7.106;2023-06-14T10:11:30;100956.84;;;23.49;61.44
80198;BME280;69517;52.030;7.106;2023-06-14T10:13:57;100953.25;;;23.50;61.38
80198;BME280;69517;52.030;7.106;2023-06-14T10:16:27;100945.16;;;23.40;61.21
80198;BME280;69517;52.030;7.106;2023-06-14T10:18:59;100958.25;;;23.42;61.85
80198;BME280;69517;52.030;7.106;2023-06-14T10:21:28;100955.19;;;23.48;62.22
80198;BME280;69517;52.030;7.106;2023-06-14T10:23:59;100957.03;;;23.46;62.23
80198;BME280;69517;52.030;7.106;2023-06-14T10:26:27;100952.66;;;23.47;62.01
80198;BME280;69517;52.030;7.106;2023-06-14T10:28:57;100954.09;;;23.51;62.45
80198;BME280;69517;52.030;7.106;2023-06-14T10:31:39;100951.56;;;23.49;61.50
80198;BME280;69517;52.030;7.106;2023-06-14T10:34:05;100952.28;;;23.51;62.11
80198;BME280;69517;52.030;7.106;2023-06-14T10:36:32;100958.41;;;23.52;62.22
80198;BME280;69517;52.030;7.106;2023-06-14T10:39:00;100949.66;;;23.51;62.45
80198;BME280;69517;52.030;7.106;2023-06-14T10:41:27;100946.81;;;23.54;62.35
80198;BME280;69517;52.030;7.106;2023-06-14T10:46:35;100933.59;;;23.54;62.56
80198;BME280;69517;52.030;7.106;2023-06-14T10:49:03;100937.78;;;23.57;62.86
80198;BME280;69517;52.030;7.106;2023-06-14T10:51:30;100942.88;;;23.60;62.96
80198;BME280;69517;52.030;7.106;2023-06-14T10:54:11;100939.47;;;23.58;63.01
80198;BME280;69517;52.030;7.106;2023-06-14T10:56:37;100931.22;;;23.62;62.94
80198;BME280;69517;52.030;7.106;2023-06-14T10:59:03;100947.50;;;23.56;62.85
80198;BME280;69517;52.030;7.106;2023-06-14T11:01:35;100942.88;;;23.60;63.31
80198;BME280;69517;52.030;7.106;2023-06-14T11:04:07;100950.25;;;23.55;63.26
80198;BME280;69517;52.030;7.106;2023-06-14T11:06:44;100938.75;;;23.56;63.37
80198;BME280;69517;52.030;7.106;2023-06-14T11:09:20;100946.00;;;23.65;63.83
80198;BME280;69517;52.030;7.106;2023-06-14T11:11:52;100949.47;;;23.65;64.36
80198;BME280;69517;52.030;7.106;2023-06-14T11:14:20;100946.59;;;23.68;64.94
80198;BME280;69517;52.030;7.106;2023-06-14T11:16:47;100940.25;;;23.71;65.33
80198;BME280;69517;52.030;7.106;2023-06-14T11:19:15;100939.16;;;23.73;64.68
80198;BME280;69517;52.030;7.106;2023-06-14T11:21:42;100943.47;;;23.74;65.67
80198;BME280;69517;52.030;7.106;2023-06-14T11:24:09;100940.00;;;23.74;66.69
80198;BME280;69517;52.030;7.106;2023-06-14T11:26:37;100933.78;;;23.75;66.13
80198;BME280;69517;52.030;7.106;2023-06-14T11:29:03;100934.50;;;23.77;66.24
80198;BME280;69517;52.030;7.106;2023-06-14T11:31:29;100930.06;;;23.77;66.49
80198;BME280;69517;52.030;7.106;2023-06-14T11:33:56;100936.41;;;23.75;67.40
80198;BME280;69517;52.030;7.106;2023-06-14T11:36:24;100929.81;;;23.80;66.69
80198;BME280;69517;52.030;7.106;2023-06-14T11:38:57;100930.06;;;23.77;66.71
80198;BME280;69517;52.030;7.106;2023-06-14T11:41:24;100923.94;;;23.77;66.36
80198;BME280;69517;52.030;7.106;2023-06-14T11:43:52;100912.53;;;23.76;67.56
80198;BME280;69517;52.030;7.106;2023-06-14T11:46:18;100922.16;;;23.77;67.04
80198;BME280;69517;52.030;7.106;2023-06-14T11:48:48;100926.81;;;23.74;65.85
80198;BME280;69517;52.030;7.106;2023-06-14T11:51:15;100916.59;;;23.69;63.60
80198;BME280;69517;52.030;7.106;2023-06-14T11:53:43;100926.88;;;23.61;63.08
80198;BME280;69517;52.030;7.106;2023-06-14T11:56:09;100925.09;;;23.62;63.17
80198;BME280;69517;52.030;7.106;2023-06-14T11:58:36;100919.50;;;23.66;63.33
80198;BME280;69517;52.030;7.106;2023-06-14T12:01:03;100913.22;;;23.67;63.93
80198;BME280;69517;52.030;7.106;2023-06-14T12:03:29;100916.97;;;23.65;64.32
80198;BME280;69517;52.030;7.106;2023-06-14T12:06:03;100929.78;;;23.58;65.24
80198;BME280;69517;52.030;7.106;2023-06-14T12:08:33;100923.78;;;23.67;65.20
80198;BME280;69517;52.030;7.106;2023-06-14T12:11:05;100922.13;;;23.66;65.09
80198;BME280;69517;52.030;7.106;2023-06-14T12:13:32;100912.63;;;23.64;65.16
80198;BME280;69517;52.030;7.106;2023-06-14T12:15:59;100909.03;;;23.65;65.55
80198;BME280;69517;52.030;7.106;2023-06-14T12:18:32;100917.66;;;23.67;65.68
80198;BME280;69517;52.030;7.106;2023-06-14T12:20:59;100914.06;;;23.68;65.75
80198;BME280;69517;52.030;7.106;2023-06-14T12:23:27;100917.44;;;23.70;65.70
80198;BME280;69517;52.030;7.106;2023-06-14T12:26:05;100921.13;;;23.67;66.01
80198;BME280;69517;52.030;7.106;2023-06-14T12:28:31;100919.34;;;23.68;65.91
80198;BME280;69517;52.030;7.106;2023-06-14T12:30:58;100919.97;;;23.71;65.49
80198;BME280;69517;52.030;7.106;2023-06-14T12:33:24;100919.25;;;23.69;65.92
80198;BME280;69517;52.030;7.106;2023-06-14T12:35:51;100915.53;;;23.72;65.66
80198;BME280;69517;52.030;7.106;2023-06-14T12:38:17;100925.13;;;23.73;65.39
80198;BME280;69517;52.030;7.106;2023-06-14T12:40:43;100933.88;;;23.73;65.60
80198;BME280;69517;52.030;7.106;2023-06-14T12:43:11;100931.97;;;23.75;65.79
80198;BME280;69517;52.030;7.106;2023-06-14T12:45:37;100927.66;;;23.74;65.91
80198;BME280;69517;52.030;7.106;2023-06-14T12:48:04;100923.22;;;23.75;65.68
80198;BME280;69517;52.030;7.106;2023-06-14T12:50:30;100924.06;;;23.75;66.08
80198;BME280;69517;52.030;7.106;2023-06-14T12:52:56;100925.00;;;23.74;65.86